Time;durP1;ratioP1;P1;durP2;ratioP2;P2;SDS_P1;SDS_P2;PMS_P1;PMS_P2;Temp;Humidity;BMP_temperature;BMP_pressure;BME280_temperature;BME280_humidity;BME280_pressure;Samples;Min_cycle;Max_cycle;Signal;HPM_P1;HPM_P2
2023/10/03 00:00:24;;;;;;;37.30;22.02;;;22.30;99.90;;;;;;5015115;28;20034;-64
2023/10/03 00:02:55;;;;;;;33.88;21.25;;;22.20;99.90;;;;;;5014706;28;20026;-64
2023/10/03 00:05:22;;;;;;;33.63;21.60;;;22.30;99.90;;;;;;5015793;28;20069;-65
2023/10/03 00:07:58;;;;;;;35.88;21.50;;;22.30;99.90;;;;;;5015170;28;20018;-64
2023/10/03 00:10:24;;;;;;;34.63;21.33;;;22.30;99.90;;;;;;5015628;28;20026;-64
2023/10/03 00:12:51;;;;;;;32.33;19.90;;;22.30;99.90;;;;;;5015799;28;20021;-64
2023/10/03 00:15:20;;;;;;;33.47;20.65;;;22.30;99.90;;;;;;5015985;28;20033;-64
2023/10/03 00:17:46;;;;;;;31.88;20.75;;;22.30;99.90;;;;;;5015569;28;20025;-64
2023/10/03 00:20:13;;;;;;;36.72;21.85;;;22.30;99.90;;;;;;5015574;28;20033;-64
2023/10/03 00:22:40;;;;;;;31.65;20.30;;;22.20;99.90;;;;;;5015130;28;20101;-64
2023/10/03 00:25:07;;;;;;;34.70;20.73;;;22.20;99.90;;;;;;5015324;28;20018;-65
2023/10/03 00:27:36;;;;;;;33.35;20.15;;;22.30;99.90;;;;;;5014348;28;20068;-64
2023/10/03 00:30:06;;;;;;;34.08;21.38;;;22.30;99.90;;;;;;5015518;28;20033;-64
2023/10/03 00:32:32;;;;;;;33.42;19.73;;;22.30;99.90;;;;;;5015425;28;20037;-65
2023/10/03 00:34:57;;;;;;;34.15;20.42;;;22.20;99.90;;;;;;5015340;28;20033;-64
2023/10/03 00:37:24;;;;;;;34.90;20.60;;;22.20;99.90;;;;;;5015127;28;20033;-64
2023/10/03 00:39:50;;;;;;;37.10;21.58;;;22.20;99.90;;;;;;5015174;28;20038;-65
2023/10/03 00:42:15;;;;;;;32.47;20.60;;;22.30;99.90;;;;;;5015474;28;20352;-63
2023/10/03 00:44:41;;;;;;;30.50;19.63;;;22.20;99.90;;;;;;5015232;28;20108;-65
2023/10/03 00:47:07;;;;;;;30.58;20.23;;;22.20;99.90;;;;;;5015365;28;20026;-64
2023/10/03 00:49:33;;;;;;;30.88;19.50;;;22.20;99.90;;;;;;5015069;28;20116;-64
2023/10/03 00:52:00;;;;;;;31.70;19.48;;;22.20;99.90;;;;;;5015163;28;20047;-65
2023/10/03 00:54:27;;;;;;;33.10;19.80;;;22.20;99.90;;;;;;5015101;28;20112;-64
2023/10/03 00:56:53;;;;;;;29.55;19.23;;;22.20;99.90;;;;;;5015236;28;20030;-63
2023/10/03 00:59:19;;;;;;;29.27;18.15;;;22.20;99.90;;;;;;5014789;28;20068;-64
2023/10/03 01:01:46;;;;;;;30.38;19.10;;;22.20;99.90;;;;;;5014982;28;20030;-64
2023/10/03 01:04:19;;;;;;;30.70;18.70;;;22.20;99.90;;;;;;5014609;28;20038;-64
2023/10/03 01:06:47;;;;;;;30.05;18.75;;;22.20;99.90;;;;;;5014517;28;20026;-64
2023/10/03 01:09:28;;;;;;;29.63;18.30;;;22.20;99.90;;;;;;5013230;28;20057;-64
2023/10/03 01:11:56;;;;;;;28.17;17.40;;;22.20;99.90;;;;;;5014757;28;20021;-64
2023/10/03 01:14:23;;;;;;;31.38;19.15;;;22.20;99.90;;;;;;5014737;28;20026;-64
2023/10/03 01:16:49;;;;;;;29.15;17.83;;;22.20;99.90;;;;;;5014495;28;20073;-66
2023/10/03 01:19:25;;;;;;;29.98;18.40;;;22.20;99.90;;;;;;5014645;28;20037;-64
2023/10/03 01:21:51;;;;;;;30.90;18.73;;;22.20;99.90;;;;;;5014350;28;20025;-64
2023/10/03 01:24:26;;;;;;;33.80;19.02;;;22.20;99.90;;;;;;5014414;28;20033;-64
2023/10/03 01:26:53;;;;;;;29.50;18.10;;;22.20;99.90;;;;;;5014530;28;20033;-64
2023/10/03 01:29:22;;;;;;;30.52;18.08;;;22.20;99.90;;;;;;5014287;28;20076;-64
2023/10/03 01:31:49;;;;;;;28.85;16.63;;;22.20;99.90;;;;;;5014538;28;20025;-64
2023/10/03 01:34:15;;;;;;;26.98;17.00;;;22.20;99.90;;;;;;5014250;28;20037;-64
2023/10/03 01:36:47;;;;;;;28.30;17.33;;;22.20;99.90;;;;;;5014239;28;20030;-65
2023/10/03 01:39:14;;;;;;;;;;;22.20;99.90;;;;;;5014189;28;20502;-64
2023/10/03 01:41:40;;;;;;;25.92;17.20;;;22.20;99.90;;;;;;5013882;28;19906;-64
2023/10/03 01:44:06;;;;;;;26.45;16.90;;;22.10;99.90;;;;;;5014199;28;20034;-63
2023/10/03 01:46:32;;;;;;;27.85;16.88;;;22.10;99.90;;;;;;5014253;28;20026;-67
2023/10/03 01:48:58;;;;;;;25.52;15.82;;;22.20;99.90;;;;;;5014032;28;20028;-68
2023/10/03 01:51:24;;;;;;;25.55;15.68;;;22.20;99.90;;;;;;5013938;28;20026;-64
2023/10/03 01:53:50;;;;;;;26.25;16.17;;;22.10;99.90;;;;;;5014032;28;20021;-64
2023/10/03 01:56:15;;;;;;;21.63;14.60;;;22.20;99.90;;;;;;5013871;28;20034;-64
2023/10/03 01:58:41;;;;;;;24.10;15.57;;;22.10;99.90;;;;;;5013866;28;20383;-64
2023/10/03 02:01:07;;;;;;;22.95;14.40;;;22.10;99.90;;;;;;5013910;28;20032;-64
2023/10/03 02:03:35;;;;;;;23.10;14.45;;;22.10;99.90;;;;;;5013995;28;20092;-64
2023/10/03 02:06:00;;;;;;;26.38;14.73;;;22.10;99.90;;;;;;5013151;28;20061;-64
2023/10/03 02:08:26;;;;;;;25.63;14.48;;;22.10;99.90;;;;;;5013722;28;20080;-64
2023/10/03 02:10:52;;;;;;;21.65;14.40;;;22.10;99.90;;;;;;5013765;28;20018;-64
2023/10/03 02:13:21;;;;;;;20.60;13.80;;;22.10;99.90;;;;;;5013887;28;20030;-64
2023/10/03 02:15:49;;;;;;;19.35;12.23;;;22.10;99.90;;;;;;5013612;28;20487;-64
2023/10/03 02:18:19;;;;;;;18.70;11.93;;;22.10;99.90;;;;;;5013685;28;20046;-63
2023/10/03 02:20:53;;;;;;;21.67;13.88;;;22.10;99.90;;;;;;5013447;28;20026;-64
2023/10/03 02:23:24;;;;;;;19.23;12.00;;;22.10;99.90;;;;;;5013478;28;20018;-64
2023/10/03 02:25:51;;;;;;;20.02;11.98;;;22.10;99.90;;;;;;5013590;28;20061;-64
2023/10/03 02:28:17;;;;;;;18.25;12.00;;;22.10;99.90;;;;;;5013582;28;20030;-64
2023/10/03 02:30:47;;;;;;;19.95;11.73;;;22.10;99.90;;;;;;5013492;28;20076;-64
2023/10/03 02:33:13;;;;;;;18.17;11.55;;;22.10;99.90;;;;;;5013516;28;20105;-64
2023/10/03 02:35:43;;;;;;;15.05;9.80;;;22.10;99.90;;;;;;5013381;28;20113;-64
2023/10/03 02:38:14;;;;;;;19.20;11.50;;;22.10;99.90;;;;;;5013256;28;20045;-64
2023/10/03 02:40:40;;;;;;;18.70;10.02;;;22.10;99.90;;;;;;5013336;28;20026;-66
2023/10/03 02:43:10;;;;;;;15.45;9.63;;;22.10;99.90;;;;;;5013337;28;20030;-65
2023/10/03 02:45:35;;;;;;;18.08;10.23;;;22.10;99.90;;;;;;5013495;28;20053;-65
2023/10/03 02:48:13;;;;;;;14.45;9.18;;;22.10;99.90;;;;;;5013377;28;20037;-65
2023/10/03 02:50:43;;;;;;;14.38;8.65;;;22.10;99.90;;;;;;5014531;28;20030;-65
2023/10/03 02:53:12;;;;;;;14.55;9.40;;;22.10;99.90;;;;;;5017289;28;20032;-67
2023/10/03 02:55:38;;;;;;;14.60;8.85;;;22.10;99.90;;;;;;5017296;28;20022;-65
2023/10/03 02:58:05;;;;;;;14.95;8.93;;;22.10;99.90;;;;;;5017266;28;20104;-64
2023/10/03 03:00:33;;;;;;;11.27;6.82;;;22.10;99.90;;;;;;5017236;28;20100;-65
2023/10/03 03:02:58;;;;;;;12.15;7.28;;;22.10;99.90;;;;;;5016872;28;20026;-72
2023/10/03 03:05:35;;;;;;;15.05;7.95;;;22.00;99.90;;;;;;5016900;28;20040;-64
2023/10/03 03:08:10;;;;;;;11.55;6.85;;;22.00;99.90;;;;;;5017143;28;20476;-64
2023/10/03 03:10:38;;;;;;;10.05;6.32;;;22.00;99.90;;;;;;5017046;28;20026;-64
2023/10/03 03:13:07;;;;;;;12.65;6.57;;;22.00;99.90;;;;;;5017085;28;20463;-64
2023/10/03 03:15:36;;;;;;;10.48;6.05;;;22.00;99.90;;;;;;5016956;28;20133;-63
2023/10/03 03:18:02;;;;;;;11.25;6.05;;;22.00;99.90;;;;;;5016559;28;20026;-64
2023/10/03 03:20:36;;;;;;;12.75;5.25;;;22.00;99.90;;;;;;5017046;28;20037;-64
2023/10/03 03:23:02;;;;;;;10.23;5.47;;;22.00;99.90;;;;;;5016825;28;20076;-63
2023/10/03 03:25:38;;;;;;;10.93;5.43;;;22.00;99.90;;;;;;5016693;28;20109;-64
2023/10/03 03:28:13;;;;;;;9.73;5.32;;;22.00;99.90;;;;;;5016721;28;20076;-63
2023/10/03 03:30:46;;;;;;;12.18;5.13;;;22.00;99.90;;;;;;5016761;28;20105;-64
2023/10/03 03:33:19;;;;;;;;;;;22.00;99.90;;;;;;5016594;28;20026;-63
2023/10/03 03:35:46;;;;;;;11.00;5.03;;;22.00;99.90;;;;;;5016563;28;19909;-64
2023/10/03 03:38:15;;;;;;;8.98;5.47;;;22.00;99.90;;;;;;5015848;28;20034;-62
2023/10/03 03:40:56;;;;;;;15.20;6.00;;;22.00;99.90;;;;;;5015952;28;20526;-64
2023/10/03 03:43:22;;;;;;;6.47;4.32;;;21.90;99.90;;;;;;5016101;28;20022;-64
2023/10/03 03:45:48;;;;;;;13.52;5.00;;;21.90;99.90;;;;;;5016304;28;20040;-64
2023/10/03 03:48:15;;;;;;;10.57;4.72;;;21.90;99.90;;;;;;5015290;28;20022;-66
2023/10/03 03:50:41;;;;;;;11.65;5.28;;;21.90;99.90;;;;;;5016380;28;20030;-64
2023/10/03 03:53:07;;;;;;;9.48;5.15;;;21.90;99.90;;;;;;5016236;28;20123;-64
2023/10/03 03:55:35;;;;;;;10.27;5.40;;;21.90;99.90;;;;;;5016303;28;20126;-64
2023/10/03 03:58:07;;;;;;;8.82;4.78;;;21.90;99.90;;;;;;5016109;28;20014;-66
2023/10/03 04:00:34;;;;;;;;;;;21.90;99.90;;;;;;5016601;28;20549;-69
2023/10/03 04:03:05;;;;;;;11.73;4.93;;;21.90;99.90;;;;;;5015990;28;19912;-64
2023/10/03 04:05:32;;;;;;;12.00;5.75;;;21.90;99.90;;;;;;5015799;28;20068;-63
2023/10/03 04:07:59;;;;;;;11.20;5.28;;;21.90;99.90;;;;;;5016037;28;20030;-72
2023/10/03 04:10:28;;;;;;;13.45;5.18;;;21.90;99.90;;;;;;5016062;28;20437;-64
2023/10/03 04:12:54;;;;;;;8.60;4.53;;;21.90;99.90;;;;;;5015909;28;20026;-64
2023/10/03 04:15:20;;;;;;;10.38;5.25;;;21.90;99.90;;;;;;5015542;28;20165;-73
2023/10/03 04:17:48;;;;;;;11.95;4.85;;;21.90;99.90;;;;;;5015815;28;20032;-64
2023/10/03 04:22:41;;;;;;;11.18;5.70;;;21.90;99.90;;;;;;5015736;28;20054;-64
2023/10/03 04:25:12;;;;;;;18.65;5.75;;;21.80;99.90;;;;;;5015913;28;20097;-64
2023/10/03 04:27:38;;;;;;;9.32;5.15;;;21.90;99.90;;;;;;5015515;28;20022;-64
2023/10/03 04:30:05;;;;;;;8.55;4.97;;;21.80;99.90;;;;;;5015759;28;20033;-64
2023/10/03 04:32:32;;;;;;;8.93;5.80;;;21.90;99.90;;;;;;5015235;28;20360;-64
2023/10/03 04:34:57;;;;;;;12.02;5.88;;;21.80;99.90;;;;;;5015589;28;20053;-64
2023/10/03 04:37:23;;;;;;;10.40;5.03;;;21.90;99.90;;;;;;5015400;28;20057;-64
2023/10/03 04:39:49;;;;;;;10.20;5.68;;;21.90;99.90;;;;;;5015262;28;20074;-73
2023/10/03 04:42:14;;;;;;;11.70;5.43;;;21.90;99.90;;;;;;5015505;28;20069;-72
2023/10/03 04:44:40;;;;;;;9.75;6.07;;;21.80;99.90;;;;;;5014905;28;20029;-64
2023/10/03 04:47:09;;;;;;;9.32;5.90;;;21.80;99.90;;;;;;5015335;28;20022;-72
2023/10/03 04:49:35;;;;;;;6.95;5.05;;;21.80;99.90;;;;;;5015181;28;20029;-64
2023/10/03 04:52:00;;;;;;;10.63;5.60;;;21.80;99.90;;;;;;5015286;28;20494;-65
2023/10/03 04:54:26;;;;;;;9.48;5.90;;;21.80;99.90;;;;;;5014871;28;20025;-64
2023/10/03 04:56:51;;;;;;;11.88;6.13;;;21.80;99.90;;;;;;5015461;28;20103;-64
2023/10/03 04:59:19;;;;;;;10.50;5.65;;;21.80;99.90;;;;;;5014659;28;20034;-64
2023/10/03 05:01:44;;;;;;;9.95;5.55;;;21.80;99.90;;;;;;5014502;28;20526;-64
2023/10/03 05:04:12;;;;;;;13.93;6.03;;;21.70;99.90;;;;;;5014837;28;20022;-64
2023/10/03 05:06:37;;;;;;;11.15;6.00;;;21.80;99.90;;;;;;5013564;28;20092;-65
2023/10/03 05:09:04;;;;;;;10.73;5.40;;;21.80;99.90;;;;;;5014822;28;20025;-73
2023/10/03 05:11:30;;;;;;;12.13;6.25;;;21.80;99.90;;;;;;5014613;28;20018;-73
2023/10/03 05:13:56;;;;;;;9.32;5.53;;;21.70;99.90;;;;;;5013734;28;20037;-72
2023/10/03 05:16:21;;;;;;;9.15;5.32;;;21.70;99.90;;;;;;5014706;28;20022;-72
2023/10/03 05:18:47;;;;;;;9.90;5.25;;;21.80;99.90;;;;;;5014532;28;20112;-64
2023/10/03 05:21:13;;;;;;;9.02;5.70;;;21.70;99.90;;;;;;5014628;28;20483;-64
2023/10/03 05:23:41;;;;;;;7.43;5.05;;;21.70;99.90;;;;;;5011191;28;20359;-71
2023/10/03 05:26:07;;;;;;;13.88;5.25;;;21.70;99.90;;;;;;5014529;28;20080;-67
2023/10/03 05:28:37;;;;;;;12.02;5.95;;;21.70;99.90;;;;;;5012035;28;20013;-65
2023/10/03 05:31:03;;;;;;;7.25;5.05;;;21.70;99.90;;;;;;5003754;28;20033;-70
2023/10/03 05:33:28;;;;;;;9.93;5.80;;;21.70;99.90;;;;;;5013700;28;20033;-64
2023/10/03 05:35:54;;;;;;;11.93;6.13;;;21.70;99.90;;;;;;5014354;28;20352;-65
2023/10/03 05:38:20;;;;;;;8.48;5.18;;;21.70;99.90;;;;;;5014334;28;20061;-73
2023/10/03 05:40:47;;;;;;;11.63;5.82;;;21.70;99.90;;;;;;5014031;28;20030;-65
2023/10/03 05:43:12;;;;;;;12.07;5.28;;;21.70;99.90;;;;;;5013981;28;20024;-69
2023/10/03 05:45:39;;;;;;;11.38;5.72;;;21.70;99.90;;;;;;5008995;28;20038;-70
2023/10/03 05:48:05;;;;;;;14.35;6.38;;;21.70;99.90;;;;;;5004362;28;20022;-66
2023/10/03 05:50:32;;;;;;;11.02;5.97;;;21.80;99.90;;;;;;5010916;28;20140;-63
2023/10/03 05:52:59;;;;;;;13.52;6.13;;;21.70;99.90;;;;;;4998819;28;20072;-66
2023/10/03 05:55:25;;;;;;;11.73;6.38;;;21.70;99.90;;;;;;5015331;28;20160;-65
2023/10/03 05:57:51;;;;;;;11.88;5.95;;;21.70;99.90;;;;;;5008935;28;20530;-68
2023/10/03 06:00:17;;;;;;;12.98;6.05;;;21.70;99.90;;;;;;5007627;28;20062;-67
2023/10/03 06:02:47;;;;;;;14.10;6.20;;;21.70;99.90;;;;;;5011863;28;20065;-63
2023/10/03 06:05:16;;;;;;;18.73;6.57;;;21.70;99.90;;;;;;5006544;28;20038;-61
2023/10/03 06:07:43;;;;;;;13.68;5.65;;;21.70;99.90;;;;;;4999716;28;20415;-66
2023/10/03 06:10:14;;;;;;;18.42;6.63;;;21.70;99.90;;;;;;5007209;28;20025;-63
2023/10/03 06:12:40;;;;;;;12.75;6.20;;;21.70;99.90;;;;;;4999501;28;20033;-62
2023/10/03 06:15:06;;;;;;;14.07;6.90;;;21.70;99.90;;;;;;5010315;28;20379;-66
2023/10/03 06:17:33;;;;;;;14.75;7.03;;;21.70;99.90;;;;;;5027718;28;20025;-62
2023/10/03 06:19:58;;;;;;;15.02;6.75;;;21.60;99.90;;;;;;5015207;28;20042;-62
2023/10/03 06:22:24;;;;;;;13.00;6.25;;;21.60;99.90;;;;;;5004367;28;20591;-62
2023/10/03 06:24:50;;;;;;;11.27;6.35;;;21.60;99.90;;;;;;4998550;28;20399;-63
2023/10/03 06:27:17;;;;;;;10.43;6.18;;;21.60;99.90;;;;;;5003627;28;20036;-61
2023/10/03 06:29:43;;;;;;;10.35;5.85;;;21.60;99.90;;;;;;5012601;28;20055;-62
2023/10/03 06:32:09;;;;;;;10.88;5.97;;;21.60;99.90;;;;;;4999786;28;20034;-62
2023/10/03 06:34:35;;;;;;;10.82;6.45;;;21.60;99.90;;;;;;5004282;28;20506;-69
2023/10/03 06:37:01;;;;;;;12.15;7.45;;;21.60;99.90;;;;;;5016545;28;20033;-62
2023/10/03 06:39:27;;;;;;;12.55;6.30;;;21.50;99.90;;;;;;5030219;28;20556;-63
2023/10/03 06:41:55;;;;;;;9.32;5.88;;;21.50;99.90;;;;;;5014661;28;20036;-60
2023/10/03 06:44:21;;;;;;;10.95;5.45;;;21.50;99.90;;;;;;5007190;28;20035;-60
2023/10/03 06:46:47;;;;;;;9.57;5.53;;;21.60;99.90;;;;;;5010649;28;20068;-61
2023/10/03 06:49:17;;;;;;;14.27;5.97;;;21.60;99.90;;;;;;5010687;28;20053;-66
2023/10/03 06:51:43;;;;;;;8.63;5.40;;;21.50;99.90;;;;;;5008530;28;20435;-62
2023/10/03 06:54:09;;;;;;;11.75;5.93;;;21.50;99.90;;;;;;5008991;28;20033;-65
2023/10/03 06:56:34;;;;;;;8.57;5.10;;;21.50;99.90;;;;;;5012353;28;20010;-62
2023/10/03 06:59:00;;;;;;;6.55;4.55;;;21.50;99.90;;;;;;5010334;28;20030;-61
2023/10/03 07:01:26;;;;;;;8.50;4.80;;;21.50;99.90;;;;;;5002596;28;20101;-62
2023/10/03 07:03:54;;;;;;;10.75;5.25;;;21.50;99.90;;;;;;4996384;28;20026;-62
2023/10/03 07:06:20;;;;;;;7.43;4.65;;;21.50;99.90;;;;;;5000908;28;20045;-72
2023/10/03 07:08:46;;;;;;;7.78;4.38;;;21.50;99.90;;;;;;5016511;28;20053;-73
2023/10/03 07:11:16;;;;;;;8.52;5.05;;;21.50;99.90;;;;;;5006875;28;20053;-62
2023/10/03 07:13:45;;;;;;;7.40;4.30;;;21.50;99.90;;;;;;5006036;28;20526;-62
2023/10/03 07:16:11;;;;;;;9.73;4.55;;;21.50;99.90;;;;;;5002333;28;20626;-62
2023/10/03 07:18:37;;;;;;;8.10;4.78;;;21.50;99.90;;;;;;4991282;28;20096;-63
2023/10/03 07:21:03;;;;;;;7.45;4.82;;;21.50;99.90;;;;;;4996063;28;20018;-62
2023/10/03 07:23:30;;;;;;;10.35;4.68;;;21.50;99.90;;;;;;5010527;28;20161;-63
2023/10/03 07:25:55;;;;;;;9.00;4.50;;;21.50;99.90;;;;;;5012195;28;20489;-65
2023/10/03 07:28:21;;;;;;;8.43;3.70;;;21.50;99.90;;;;;;4996305;28;20528;-63
2023/10/03 07:30:46;;;;;;;8.50;3.22;;;21.40;99.90;;;;;;4992440;28;20034;-63
2023/10/03 07:33:12;;;;;;;9.13;2.55;;;21.40;99.90;;;;;;4992171;28;20177;-62
2023/10/03 07:35:41;;;;;;;7.93;3.20;;;21.40;99.90;;;;;;4992954;28;20026;-63
2023/10/03 07:38:11;;;;;;;5.97;2.78;;;21.40;99.90;;;;;;5004906;28;20033;-62
2023/10/03 07:40:40;;;;;;;6.10;2.25;;;21.40;99.90;;;;;;5013152;28;20057;-61
2023/10/03 07:43:10;;;;;;;5.93;1.95;;;21.40;99.90;;;;;;4995816;28;20030;-64
2023/10/03 07:45:37;;;;;;;9.82;2.67;;;21.40;99.90;;;;;;5008136;28;20033;-61
2023/10/03 07:48:05;;;;;;;6.03;1.85;;;21.40;99.90;;;;;;5005353;28;20549;-61
2023/10/03 07:50:35;;;;;;;4.85;2.00;;;21.40;99.90;;;;;;4996899;28;20034;-62
2023/10/03 07:53:03;;;;;;;3.65;1.58;;;21.30;99.90;;;;;;4996898;28;20014;-62
2023/10/03 07:55:32;;;;;;;4.57;1.92;;;21.30;99.90;;;;;;5006037;28;20490;-61
2023/10/03 07:57:58;;;;;;;5.45;1.77;;;21.40;99.90;;;;;;5000344;28;20072;-61
2023/10/03 08:00:26;;;;;;;4.82;1.42;;;21.40;99.90;;;;;;5006459;28;20042;-61
2023/10/03 08:02:52;;;;;;;5.07;1.63;;;21.40;99.90;;;;;;5005240;28;20018;-62
2023/10/03 08:05:19;;;;;;;5.28;1.13;;;21.30;99.90;;;;;;5008385;28;20084;-62
2023/10/03 08:07:47;;;;;;;7.47;1.63;;;21.30;99.90;;;;;;5011736;28;20030;-70
2023/10/03 08:10:17;;;;;;;4.97;1.20;;;21.30;99.90;;;;;;5010922;28;20111;-63
2023/10/03 08:12:44;;;;;;;6.50;0.93;;;21.40;99.90;;;;;;5010360;28;20121;-62
2023/10/03 08:15:17;;;;;;;5.63;1.40;;;21.40;99.90;;;;;;4999989;28;20014;-62
2023/10/03 08:17:56;;;;;;;4.85;1.42;;;21.40;99.90;;;;;;4997691;28;20034;-64
2023/10/03 08:20:23;;;;;;;7.22;1.65;;;21.40;99.90;;;;;;5000581;28;20400;-62
2023/10/03 08:22:51;;;;;;;7.65;1.23;;;21.40;99.90;;;;;;5000176;28;20045;-64
2023/10/03 08:25:21;;;;;;;4.95;1.33;;;21.40;99.90;;;;;;5003623;28;20491;-63
2023/10/03 08:27:50;;;;;;;4.40;1.17;;;21.40;99.90;;;;;;5008896;28;20037;-62
2023/10/03 08:30:30;;;;;;;6.18;1.10;;;21.30;99.90;;;;;;5002965;28;20041;-64
2023/10/03 08:32:58;;;;;;;5.43;1.10;;;21.30;99.90;;;;;;5007628;28;20049;-71
2023/10/03 08:35:37;;;;;;;6.15;1.38;;;21.40;99.90;;;;;;5000217;28;20097;-63
2023/10/03 08:38:13;;;;;;;6.93;2.03;;;21.30;99.90;;;;;;5001826;28;20038;-62
2023/10/03 08:40:41;;;;;;;6.60;1.13;;;21.30;99.90;;;;;;5000051;28;20456;-61
2023/10/03 08:43:11;;;;;;;4.00;1.00;;;21.30;99.90;;;;;;5005839;28;20064;-64
2023/10/03 08:45:41;;;;;;;3.95;0.80;;;21.30;99.90;;;;;;5007419;28;20062;-65
2023/10/03 08:48:08;;;;;;;7.43;1.13;;;21.30;99.90;;;;;;5001011;28;20034;-61
2023/10/03 08:50:46;;;;;;;6.22;1.00;;;21.30;99.90;;;;;;4997404;28;20069;-62
2023/10/03 08:53:15;;;;;;;5.05;1.27;;;21.30;99.90;;;;;;4996319;28;20027;-62
2023/10/03 08:55:50;;;;;;;5.30;0.82;;;21.30;99.90;;;;;;5003058;28;20022;-61
2023/10/03 08:58:18;;;;;;;6.82;1.40;;;21.30;99.90;;;;;;5014660;28;20394;-62
2023/10/03 09:00:49;;;;;;;3.33;0.88;;;21.30;99.90;;;;;;5000551;28;20029;-63
2023/10/03 09:03:17;;;;;;;4.55;0.88;;;21.20;99.90;;;;;;5008772;28;20061;-66
2023/10/03 09:05:44;;;;;;;3.88;1.17;;;21.20;99.90;;;;;;5002396;28;20073;-63
2023/10/03 09:08:15;;;;;;;4.65;0.90;;;21.20;99.90;;;;;;4997564;28;20038;-72
2023/10/03 09:10:52;;;;;;;8.70;1.38;;;21.20;99.90;;;;;;4994869;28;20563;-66
2023/10/03 09:13:28;;;;;;;4.45;1.08;;;21.20;99.90;;;;;;4997628;28;20030;-67
2023/10/03 09:16:02;;;;;;;3.83;0.70;;;21.20;99.90;;;;;;5000322;28;20109;-71
2023/10/03 09:18:28;;;;;;;4.03;0.85;;;21.10;99.90;;;;;;5000811;28;20026;-70
2023/10/03 09:21:04;;;;;;;6.20;1.20;;;21.10;99.90;;;;;;5008672;28;20036;-68
2023/10/03 09:23:39;;;;;;;4.75;0.80;;;21.10;99.90;;;;;;5008393;28;20021;-65
2023/10/03 09:26:08;;;;;;;5.30;0.90;;;21.20;99.90;;;;;;4999528;28;20416;-63
2023/10/03 09:28:40;;;;;;;3.35;0.80;;;21.20;99.90;;;;;;5005737;28;20025;-66
2023/10/03 09:31:09;;;;;;;4.90;1.10;;;21.20;99.90;;;;;;5005075;28;20534;-63
2023/10/03 09:33:40;;;;;;;3.83;0.90;;;21.10;99.90;;;;;;5001742;28;20022;-67
2023/10/03 09:36:06;;;;;;;3.83;0.95;;;21.10;99.90;;;;;;5009926;28;20482;-65
2023/10/03 09:38:45;;;;;;;2.47;0.90;;;21.10;99.90;;;;;;5010268;28;20476;-67
2023/10/03 09:41:21;;;;;;;4.43;1.13;;;21.10;99.90;;;;;;5003454;28;20482;-66
2023/10/03 09:43:53;;;;;;;3.03;0.80;;;21.10;99.90;;;;;;5008694;28;20030;-64
2023/10/03 09:46:25;;;;;;;3.72;0.82;;;21.10;99.90;;;;;;5010426;28;20037;-68
2023/10/03 09:48:54;;;;;;;3.53;1.23;;;21.10;99.90;;;;;;5005992;28;20026;-68
2023/10/03 09:52:16;;;;;;;3.33;0.77;;;21.10;99.90;;;;;;5010109;28;20033;-68
2023/10/03 09:54:13;;;;;;;3.38;1.10;;;21.20;99.90;;;;;;5002778;28;20072;-63
2023/10/03 09:56:44;;;;;;;3.92;1.05;;;21.10;99.90;;;;;;5004860;28;20781;-63
2023/10/03 09:59:17;;;;;;;3.08;0.95;;;21.20;99.90;;;;;;5007767;28;20538;-63
2023/10/03 10:01:45;;;;;;;5.32;0.85;;;21.20;99.90;;;;;;4999102;28;20033;-62
2023/10/03 10:04:15;;;;;;;6.28;0.90;;;21.20;99.90;;;;;;5004357;28;20429;-63
2023/10/03 10:06:47;;;;;;;5.60;1.10;;;21.20;99.90;;;;;;4997653;28;20031;-62
2023/10/03 10:09:29;;;;;;;4.70;0.95;;;21.20;99.90;;;;;;5003220;28;20018;-61
2023/10/03 10:12:18;;;;;;;6.50;0.98;;;21.20;99.90;;;;;;5006047;28;20038;-70
2023/10/03 10:15:21;;;;;;;2.85;0.73;;;21.30;99.90;;;;;;5002044;28;20100;-60
2023/10/03 10:17:55;;;;;;;3.92;0.90;;;21.30;99.90;;;;;;5010004;28;20100;-62
2023/10/03 10:20:38;;;;;;;2.58;0.90;;;21.20;99.90;;;;;;5010114;28;20070;-65
2023/10/03 10:23:06;;;;;;;3.25;0.60;;;21.20;99.90;;;;;;5002218;28;20471;-62
2023/10/03 10:25:38;;;;;;;4.55;0.90;;;21.30;99.70;;;;;;5010028;28;21584;-61
2023/10/03 10:28:11;;;;;;;4.00;0.70;;;21.20;99.40;;;;;;5007976;28;20054;-61
2023/10/03 10:30:42;;;;;;;6.05;0.93;;;21.20;99.50;;;;;;5002861;28;20091;-62
2023/10/03 10:33:18;;;;;;;3.60;0.50;;;21.30;99.40;;;;;;5006551;28;20028;-62
2023/10/03 10:35:59;;;;;;;2.58;0.60;;;21.30;99.30;;;;;;5005910;28;20026;-71
2023/10/03 10:38:31;;;;;;;3.72;0.70;;;21.30;99.10;;;;;;5004684;28;20026;-62
2023/10/03 10:41:18;;;;;;;4.75;0.90;;;21.30;99.00;;;;;;4999120;28;20030;-61
2023/10/03 10:44:21;;;;;;;4.53;0.50;;;21.30;99.20;;;;;;5001176;28;20419;-62
2023/10/03 10:46:49;;;;;;;3.00;0.60;;;21.30;99.30;;;;;;5005256;28;20506;-62
2023/10/03 10:49:30;;;;;;;3.58;0.70;;;21.30;99.10;;;;;;5009151;28;20029;-68
2023/10/03 10:52:01;;;;;;;5.10;0.68;;;21.30;99.20;;;;;;5010004;28;20056;-62
2023/10/03 10:54:29;;;;;;;4.18;0.50;;;21.30;99.20;;;;;;5000432;28;20021;-65
2023/10/03 10:56:59;;;;;;;4.35;0.90;;;21.30;98.90;;;;;;4995683;28;20483;-61
2023/10/03 10:59:31;;;;;;;3.63;1.02;;;21.50;97.30;;;;;;5010506;28;20128;-65
2023/10/03 11:01:58;;;;;;;2.88;0.63;;;21.50;97.30;;;;;;5010506;28;20097;-62
2023/10/03 11:04:28;;;;;;;6.90;0.75;;;21.50;97.50;;;;;;5004843;28;20080;-70
2023/10/03 11:06:54;;;;;;;4.35;0.88;;;21.60;97.70;;;;;;5008470;28;20038;-70
2023/10/03 11:09:21;;;;;;;3.50;0.77;;;21.60;97.90;;;;;;5007119;28;20090;-71
2023/10/03 11:11:47;;;;;;;4.72;1.20;;;21.50;97.80;;;;;;5004626;28;20094;-64
2023/10/03 11:14:25;;;;;;;2.70;0.55;;;21.60;97.50;;;;;;4995978;28;20038;-62
2023/10/03 11:16:50;;;;;;;2.00;0.80;;;21.60;97.50;;;;;;5005904;28;20029;-61
2023/10/03 11:19:16;;;;;;;2.08;0.57;;;21.60;97.70;;;;;;4994943;28;20062;-62
2023/10/03 11:21:42;;;;;;;5.32;0.80;;;21.60;97.50;;;;;;5013554;28;20045;-68
2023/10/03 11:24:15;;;;;;;3.33;0.70;;;21.60;98.10;;;;;;5010815;28;20076;-66
2023/10/03 11:26:45;;;;;;;6.25;0.80;;;21.50;98.00;;;;;;5008247;28;20503;-67
2023/10/03 11:29:11;;;;;;;3.47;0.95;;;21.50;98.20;;;;;;5009004;28;20026;-66
2023/10/03 11:31:41;;;;;;;4.60;0.47;;;21.50;98.20;;;;;;5009907;28;20483;-69
2023/10/03 11:34:07;;;;;;;1.98;0.57;;;21.40;98.10;;;;;;5009941;28;20024;-66
2023/10/03 11:36:45;;;;;;;3.40;0.90;;;21.40;98.00;;;;;;5005229;28;20112;-69
2023/10/03 11:39:18;;;;;;;4.38;0.90;;;21.40;98.10;;;;;;5013359;28;20066;-66
2023/10/03 11:41:44;;;;;;;3.75;1.08;;;21.40;98.00;;;;;;5011527;28;20053;-65
2023/10/03 11:44:20;;;;;;;2.97;1.05;;;21.40;98.10;;;;;;5011312;28;20117;-66
2023/10/03 11:46:47;;;;;;;4.07;1.17;;;21.30;98.00;;;;;;5014197;28;20464;-66
2023/10/03 11:49:15;;;;;;;3.00;1.20;;;21.30;97.90;;;;;;5014231;28;20545;-69
2023/10/03 11:51:43;;;;;;;3.35;1.33;;;21.30;98.20;;;;;;5014454;28;20033;-66
2023/10/03 11:54:15;;;;;;;4.93;0.90;;;21.30;98.30;;;;;;5013968;28;20030;-69
2023/10/03 11:56:47;;;;;;;2.88;1.10;;;21.40;98.50;;;;;;5002431;28;20050;-66
2023/10/03 11:59:16;;;;;;;3.08;1.65;;;21.40;98.80;;;;;;5012803;28;20109;-66
2023/10/03 12:01:56;;;;;;;4.55;1.15;;;21.40;98.60;;;;;;5014112;28;20044;-70
2023/10/03 12:04:23;;;;;;;3.20;1.40;;;21.50;98.20;;;;;;5008972;28;20543;-69
2023/10/03 12:06:49;;;;;;;4.30;1.63;;;21.50;97.90;;;;;;5008685;28;20022;-67
2023/10/03 12:09:17;;;;;;;4.38;1.55;;;21.50;97.60;;;;;;5013858;28;20064;-67
2023/10/03 12:11:43;;;;;;;4.03;1.60;;;21.50;97.70;;;;;;5014618;28;20025;-68
2023/10/03 12:14:10;;;;;;;3.60;1.80;;;21.50;97.60;;;;;;5013772;28;20105;-70
2023/10/03 12:16:39;;;;;;;4.53;1.77;;;21.50;97.50;;;;;;5011407;28;20490;-65
2023/10/03 12:19:07;;;;;;;6.22;1.98;;;21.50;97.20;;;;;;5022373;28;20034;-66
2023/10/03 12:21:33;;;;;;;4.50;1.67;;;21.50;97.30;;;;;;5013910;28;20057;-67
2023/10/03 12:24:02;;;;;;;4.32;2.05;;;21.50;97.50;;;;;;5012228;28;20037;-68
2023/10/03 12:26:29;;;;;;;4.35;1.60;;;21.50;97.20;;;;;;5002773;28;20037;-66
2023/10/03 12:28:56;;;;;;;5.00;2.30;;;21.50;97.40;;;;;;5012089;28;20467;-66
2023/10/03 12:31:25;;;;;;;4.93;2.42;;;21.50;96.60;;;;;;5007152;28;20026;-66
2023/10/03 12:33:55;;;;;;;4.50;2.47;;;21.50;96.90;;;;;;5003180;28;20029;-70
2023/10/03 12:36:21;;;;;;;4.38;2.05;;;21.50;95.70;;;;;;5001989;28;20685;-66
2023/10/03 12:38:47;;;;;;;5.13;2.20;;;21.40;95.80;;;;;;5013774;28;20034;-67
2023/10/03 12:41:13;;;;;;;9.52;2.50;;;21.40;96.10;;;;;;5005750;28;20464;-70
2023/10/03 12:43:46;;;;;;;4.50;2.60;;;21.50;96.20;;;;;;5008178;28;20022;-66
2023/10/03 12:46:14;;;;;;;6.90;2.88;;;21.50;96.00;;;;;;5013724;28;20050;-70
2023/10/03 12:48:43;;;;;;;4.10;2.78;;;21.50;96.10;;;;;;5012730;28;20029;-70
2023/10/03 12:51:09;;;;;;;7.45;3.30;;;21.50;95.40;;;;;;5013722;28;20018;-68